createdAt,value
2023-05-20T00:00:02.085Z,5.20
2023-05-20T00:05:00.685Z,6.00
2023-05-20T00:10:00.526Z,7.40
2023-05-20T00:15:00.961Z,6.40
2023-05-20T00:20:00.502Z,5.20
2023-05-20T00:25:00.542Z,5.90
2023-05-20T00:30:00.717Z,9.00
2023-05-20T00:35:01.884Z,5.80
2023-05-20T00:40:00.498Z,6.00
2023-05-20T00:45:00.554Z,7.00
2023-05-20T00:50:00.924Z,7.00
2023-05-20T00:55:00.624Z,5.80
2023-05-20T01:00:02.671Z,8.90
2023-05-20T01:05:00.526Z,6.90
2023-05-20T01:10:01.112Z,5.70
2023-05-20T01:15:06.103Z,5.40
2023-05-20T01:20:00.831Z,9.50
2023-05-20T01:25:00.466Z,5.40
2023-05-20T01:30:00.655Z,5.70
2023-05-20T01:35:00.737Z,5.70
2023-05-20T01:40:02.635Z,7.40
2023-05-20T01:45:00.900Z,6.10
2023-05-20T01:50:00.522Z,5.70
2023-05-20T01:55:00.494Z,4.50
2023-05-20T02:00:02.517Z,8.00
2023-05-20T02:05:00.526Z,7.20
2023-05-20T02:10:00.507Z,8.10
2023-05-20T02:15:00.556Z,7.20
2023-05-20T02:20:00.534Z,6.00
2023-05-20T02:25:00.543Z,5.40
2023-05-20T02:30:00.722Z,5.80
2023-05-20T02:35:00.500Z,6.90
2023-05-20T02:40:00.645Z,5.40
2023-05-20T02:45:00.532Z,8.90
2023-05-20T02:50:00.485Z,5.00
2023-05-20T02:55:00.724Z,6.60
2023-05-20T03:00:02.039Z,5.10
2023-05-20T03:05:00.489Z,5.40
2023-05-20T03:10:00.651Z,7.00
2023-05-20T03:15:00.532Z,5.10
2023-05-20T03:20:00.592Z,6.00
2023-05-20T03:25:00.518Z,6.50
2023-05-20T03:30:00.472Z,6.90
2023-05-20T03:35:00.461Z,6.90
2023-05-20T03:40:00.518Z,5.50
2023-05-20T03:45:00.609Z,4.20
2023-05-20T03:50:00.496Z,5.40
2023-05-20T03:55:00.520Z,8.00
2023-05-20T04:00:01.066Z,7.50
2023-05-20T04:05:00.472Z,5.90
2023-05-20T04:10:00.728Z,5.60
2023-05-20T04:15:00.463Z,6.70
2023-05-20T04:20:00.501Z,5.40
2023-05-20T04:25:00.518Z,6.00
2023-05-20T04:30:00.468Z,6.90
2023-05-20T04:35:00.498Z,5.70
2023-05-20T04:40:00.519Z,5.40
2023-05-20T04:45:00.539Z,5.80
2023-05-20T04:50:00.535Z,7.90
2023-05-20T04:55:00.539Z,4.70
2023-05-20T05:00:01.132Z,6.20
2023-05-20T05:05:00.735Z,5.60
2023-05-20T05:10:00.521Z,5.60
2023-05-20T05:15:00.494Z,3.50
2023-05-20T05:20:00.546Z,5.40
2023-05-20T05:25:00.540Z,5.30
2023-05-20T05:30:01.215Z,6.20
2023-05-20T05:35:00.535Z,5.40
2023-05-20T05:40:00.540Z,6.00
2023-05-20T05:45:00.492Z,4.50
2023-05-20T05:50:00.621Z,7.90
2023-05-20T05:55:00.856Z,5.00
2023-05-20T06:00:01.163Z,7.60
2023-05-20T06:05:01.710Z,4.70
2023-05-20T06:10:00.551Z,4.70
2023-05-20T06:15:00.561Z,5.00
2023-05-20T06:20:00.547Z,3.90
2023-05-20T06:25:00.646Z,3.60
2023-05-20T06:30:00.587Z,4.40
2023-05-20T06:35:00.620Z,5.80
2023-05-20T06:40:00.511Z,4.10
2023-05-20T06:45:00.482Z,5.00
2023-05-20T06:50:00.549Z,4.10
2023-05-20T06:55:00.606Z,5.30
2023-05-20T07:00:02.369Z,4.40
2023-05-20T07:05:00.471Z,3.10
2023-05-20T07:10:00.592Z,4.70
2023-05-20T07:15:01.077Z,4.10
2023-05-20T07:20:00.755Z,4.00
2023-05-20T07:25:00.528Z,4.10
2023-05-20T07:30:00.663Z,4.00
2023-05-20T07:35:00.473Z,3.90
2023-05-20T07:40:00.561Z,4.30
2023-05-20T07:45:00.592Z,3.60
2023-05-20T07:50:00.536Z,3.30
2023-05-20T07:55:00.507Z,2.90
2023-05-20T08:00:01.106Z,1.90
2023-05-20T08:05:00.471Z,3.20
2023-05-20T08:10:00.530Z,1.90
2023-05-20T08:15:00.533Z,4.10
2023-05-20T08:20:00.644Z,4.10
2023-05-20T08:25:00.602Z,4.30
2023-05-20T08:30:01.061Z,3.10
2023-05-20T08:35:00.515Z,5.50
2023-05-20T08:40:00.546Z,2.20
2023-05-20T08:45:01.764Z,4.30
2023-05-20T08:50:00.916Z,2.80
2023-05-20T08:55:01.666Z,4.00
2023-05-20T09:00:02.039Z,5.20
2023-05-20T09:05:00.518Z,5.10
2023-05-20T09:10:00.525Z,5.70
2023-05-20T09:15:00.598Z,2.10
2023-05-20T09:20:00.547Z,2.60
2023-05-20T09:25:01.142Z,2.50
2023-05-20T09:30:00.463Z,3.10
2023-05-20T09:35:00.635Z,6.10
2023-05-20T09:40:03.620Z,2.60
2023-05-20T09:45:01.088Z,4.90
2023-05-20T09:50:00.519Z,3.50
2023-05-20T09:55:02.158Z,1.80
2023-05-20T10:00:04.234Z,3.80
2023-05-20T10:05:05.458Z,2.40
2023-05-20T10:10:01.479Z,2.40
2023-05-20T10:15:09.534Z,2.10
2023-05-20T10:20:00.692Z,2.20
2023-05-20T10:25:06.000Z,1.90
2023-05-20T10:30:00.520Z,2.50
2023-05-20T10:35:03.830Z,1.60
2023-05-20T10:40:10.013Z,3.40
2023-05-20T10:45:01.977Z,2.00
2023-05-20T10:50:00.825Z,2.40
2023-05-20T10:55:00.824Z,2.60
2023-05-20T11:00:03.080Z,4.10
2023-05-20T11:05:01.075Z,2.90
2023-05-20T11:10:00.571Z,3.00
2023-05-20T11:15:00.548Z,2.50
2023-05-20T11:20:00.535Z,1.80
2023-05-20T11:25:03.893Z,3.10
2023-05-20T11:30:01.129Z,2.20
2023-05-20T11:35:00.506Z,1.50
2023-05-20T11:40:03.688Z,3.50
2023-05-20T11:45:01.321Z,2.80
2023-05-20T11:50:00.502Z,2.30
2023-05-20T11:55:00.491Z,1.80
2023-05-20T12:00:02.179Z,3.20
2023-05-20T12:05:00.670Z,5.10
2023-05-20T12:10:00.579Z,2.70
2023-05-20T12:15:00.486Z,2.30
2023-05-20T12:20:00.524Z,2.00
2023-05-20T12:25:00.624Z,2.90
2023-05-20T12:30:00.531Z,2.50
2023-05-20T12:35:00.494Z,2.20
2023-05-20T12:40:00.772Z,2.30
2023-05-20T12:45:00.528Z,1.50
2023-05-20T12:50:01.902Z,2.50
2023-05-20T12:55:00.524Z,2.10
2023-05-20T13:00:00.877Z,2.10
2023-05-20T13:05:00.505Z,2.40
2023-05-20T13:10:00.802Z,2.50
2023-05-20T13:15:00.612Z,2.50
2023-05-20T13:20:00.494Z,3.50
2023-05-20T13:25:00.484Z,1.40
2023-05-20T13:30:00.705Z,2.50
2023-05-20T13:35:00.628Z,2.90
2023-05-20T13:40:00.571Z,3.40
2023-05-20T13:45:00.476Z,2.30
2023-05-20T13:50:02.859Z,2.40
2023-05-20T13:55:00.496Z,3.30
2023-05-20T14:00:01.203Z,2.70
2023-05-20T14:05:01.150Z,2.20
2023-05-20T14:10:00.512Z,1.80
2023-05-20T14:15:00.470Z,2.60
2023-05-20T14:20:00.527Z,2.70
2023-05-20T14:25:00.533Z,2.60
2023-05-20T14:30:00.493Z,2.60
2023-05-20T14:35:00.583Z,4.30
2023-05-20T14:40:00.693Z,2.00
2023-05-20T14:45:00.508Z,3.20
2023-05-20T14:50:00.562Z,3.90
2023-05-20T14:55:00.510Z,3.50
2023-05-20T15:00:00.969Z,2.50
2023-05-20T15:05:00.576Z,3.70
2023-05-20T15:10:00.542Z,4.10
2023-05-20T15:15:00.481Z,3.10
2023-05-20T15:20:00.580Z,2.30
2023-05-20T15:25:00.528Z,3.50
2023-05-20T15:30:00.578Z,2.40
2023-05-20T15:35:02.648Z,2.10
2023-05-20T15:40:00.600Z,4.30
2023-05-20T15:45:00.511Z,2.50
2023-05-20T15:50:00.538Z,3.40
2023-05-20T15:55:00.530Z,2.10
2023-05-20T16:00:01.422Z,3.50
2023-05-20T16:05:00.611Z,2.40
2023-05-20T16:10:00.543Z,2.70
2023-05-20T16:15:00.912Z,2.30
2023-05-20T16:20:00.741Z,3.70
2023-05-20T16:25:01.716Z,3.00
2023-05-20T16:30:00.667Z,1.50
2023-05-20T16:35:00.625Z,2.70
2023-05-20T16:40:00.574Z,2.70
2023-05-20T16:45:00.603Z,2.10
2023-05-20T16:50:00.507Z,3.30
2023-05-20T16:55:00.484Z,2.00
2023-05-20T17:00:02.579Z,1.70
2023-05-20T17:05:00.594Z,1.80
2023-05-20T17:10:00.559Z,2.00
2023-05-20T17:15:00.636Z,5.10
2023-05-20T17:20:00.622Z,2.00
2023-05-20T17:25:00.644Z,2.80
2023-05-20T17:30:00.479Z,2.20
2023-05-20T17:35:00.510Z,2.20
2023-05-20T17:40:00.604Z,2.10
2023-05-20T17:45:00.465Z,2.40
2023-05-20T17:50:00.557Z,4.20
2023-05-20T17:55:00.676Z,3.40
2023-05-20T18:00:01.299Z,4.00
2023-05-20T18:05:00.556Z,2.60
2023-05-20T18:10:00.592Z,2.10
2023-05-20T18:15:01.038Z,1.80
2023-05-20T18:20:00.551Z,3.30
2023-05-20T18:25:00.666Z,2.30
2023-05-20T18:30:00.567Z,1.90
2023-05-20T18:35:00.998Z,3.10
2023-05-20T18:40:00.709Z,2.90
2023-05-20T18:45:00.559Z,3.50
2023-05-20T18:50:00.559Z,1.40
2023-05-20T18:55:00.713Z,1.90
2023-05-20T19:00:01.336Z,2.20
2023-05-20T19:05:00.574Z,2.80
2023-05-20T19:10:01.270Z,2.50
2023-05-20T19:15:00.574Z,3.90
2023-05-20T19:20:00.605Z,2.80
2023-05-20T19:25:00.537Z,4.60
2023-05-20T19:30:00.540Z,2.00
2023-05-20T19:35:00.528Z,2.50
2023-05-20T19:40:00.589Z,2.50
2023-05-20T19:45:00.544Z,2.30
2023-05-20T19:50:00.566Z,3.20
2023-05-20T19:55:00.662Z,1.60
2023-05-20T20:00:01.102Z,1.80
2023-05-20T20:05:00.650Z,1.70
2023-05-20T20:10:00.565Z,1.60
2023-05-20T20:15:00.580Z,2.80
2023-05-20T20:20:00.600Z,1.60
2023-05-20T20:25:00.546Z,2.90
2023-05-20T20:30:00.537Z,3.10
2023-05-20T20:35:00.555Z,1.80
2023-05-20T20:40:00.573Z,1.90
2023-05-20T20:45:00.525Z,1.90
2023-05-20T20:50:00.548Z,2.50
2023-05-20T20:55:00.783Z,2.40
2023-05-20T21:00:05.061Z,2.10
2023-05-20T21:05:00.462Z,2.10
2023-05-20T21:10:00.514Z,2.40
2023-05-20T21:15:00.512Z,2.10
2023-05-20T21:20:00.564Z,5.60
2023-05-20T21:25:00.481Z,3.30
2023-05-20T21:30:00.504Z,3.10
2023-05-20T21:35:00.506Z,2.80
2023-05-20T21:40:00.591Z,2.90
2023-05-20T21:45:00.494Z,2.60
2023-05-20T21:50:00.908Z,3.70
2023-05-20T21:55:00.569Z,3.00
2023-05-20T22:00:02.659Z,2.80
2023-05-20T22:05:00.643Z,2.70
2023-05-20T22:10:00.500Z,4.70
2023-05-20T22:15:00.803Z,2.60
2023-05-20T22:20:00.698Z,2.50
2023-05-20T22:25:01.726Z,2.60
2023-05-20T22:30:00.582Z,3.00
2023-05-20T22:35:00.483Z,4.60
2023-05-20T22:40:00.497Z,2.30
2023-05-20T22:45:00.467Z,3.90
2023-05-20T22:50:00.598Z,2.70
2023-05-20T22:55:00.490Z,3.10
2023-05-20T23:00:01.282Z,2.30
2023-05-20T23:05:00.498Z,2.60
2023-05-20T23:10:00.500Z,2.60
2023-05-20T23:15:00.476Z,3.40
2023-05-20T23:20:00.969Z,3.00
2023-05-20T23:25:00.491Z,4.20
2023-05-20T23:30:00.541Z,3.00
2023-05-20T23:35:00.472Z,2.50
2023-05-20T23:40:00.491Z,3.80
2023-05-20T23:45:00.511Z,4.20
2023-05-20T23:50:00.771Z,3.20
2023-05-20T23:55:00.495Z,2.70
